Time;durP1;ratioP1;P1;durP2;ratioP2;P2;SDS_P1;SDS_P2;PMS_P1;PMS_P2;Temp;Humidity;BMP_temperature;BMP_pressure;BME280_temperature;BME280_humidity;BME280_pressure;Samples;Min_cycle;Max_cycle;Signal;HPM_P1;HPM_P2
2021/05/15 00:01:05;;;;;;;34.75;18.52;;;;;;;;;;5112856;28;20178;-77
2021/05/15 00:03:31;;;;;;;43.13;19.33;;;;;;;;;;5112741;28;20179;-79
2021/05/15 00:05:57;;;;;;;34.38;20.10;;;;;;;;;;5121474;28;20205;-78
2021/05/15 00:08:23;;;;;;;34.03;19.20;;;;;;;;;;5114433;28;20198;-77
2021/05/15 00:10:49;;;;;;;34.92;19.95;;;;;;;;;;5108796;28;20451;-79
2021/05/15 00:13:16;;;;;;;32.22;17.58;;;;;;;;;;5125831;28;20611;-77
2021/05/15 00:15:42;;;;;;;26.98;18.23;;;;;;;;;;5113706;27;20657;-79
2021/05/15 00:18:08;;;;;;;32.87;20.00;;;;;;;;;;5115384;27;20220;-77
2021/05/15 00:20:34;;;;;;;33.72;20.13;;;;;;;;;;5118211;27;20773;-80
2021/05/15 00:23:00;;;;;;;29.52;18.85;;;;;;;;;;5112583;28;20175;-75
2021/05/15 00:25:26;;;;;;;31.83;18.48;;;;;;;;;;5123356;27;20226;-76
2021/05/15 00:27:52;;;;;;;37.23;21.20;;;;;;;;;;5123016;27;20254;-77
2021/05/15 00:30:18;;;;;;;30.20;19.10;;;;;;;;;;5117904;27;21050;-76
2021/05/15 00:32:44;;;;;;;31.85;19.20;;;;;;;;;;5119319;27;20754;-75
2021/05/15 00:35:11;;;;;;;32.05;18.30;;;;;;;;;;5136711;27;20186;-77
2021/05/15 00:37:37;;;;;;;27.85;18.35;;;;;;;;;;5113987;27;20183;-78
2021/05/15 00:40:04;;;;;;;28.17;17.35;;;;;;;;;;5127893;27;20191;-78
2021/05/15 00:42:32;;;;;;;31.70;18.75;;;;;;;;;;5098442;27;20183;-75
2021/05/15 00:44:58;;;;;;;28.45;16.95;;;;;;;;;;5130524;27;20199;-77
2021/05/15 00:47:24;;;;;;;29.77;17.63;;;;;;;;;;5110961;27;20243;-78
2021/05/15 00:49:51;;;;;;;32.20;17.60;;;;;;;;;;5120151;27;20505;-75
2021/05/15 00:52:17;;;;;;;28.92;17.95;;;;;;;;;;5112687;27;20424;-75
2021/05/15 00:54:44;;;;;;;28.63;17.40;;;;;;;;;;5122960;27;20174;-75
2021/05/15 00:57:10;;;;;;;23.65;17.05;;;;;;;;;;5109057;28;20258;-79
2021/05/15 00:59:37;;;;;;;26.77;17.00;;;;;;;;;;5121132;27;20230;-77
2021/05/15 01:02:04;;;;;;;27.30;17.70;;;;;;;;;;5116559;28;20179;-79
2021/05/15 01:04:29;;;;;;;30.40;17.88;;;;;;;;;;5123629;27;20193;-75
2021/05/15 01:06:56;;;;;;;26.90;16.43;;;;;;;;;;5125512;27;20203;-79
2021/05/15 01:09:21;;;;;;;30.50;18.60;;;;;;;;;;5125045;27;20466;-78
2021/05/15 01:11:49;;;;;;;28.80;17.80;;;;;;;;;;5124723;27;20178;-75
2021/05/15 01:14:15;;;;;;;28.08;17.13;;;;;;;;;;5127974;27;20554;-78
2021/05/15 01:16:41;;;;;;;29.35;18.33;;;;;;;;;;5116264;28;20181;-78
2021/05/15 01:19:07;;;;;;;27.50;17.10;;;;;;;;;;5111357;28;20213;-74
2021/05/15 01:21:34;;;;;;;29.17;17.50;;;;;;;;;;5114291;27;20181;-79
2021/05/15 01:24:01;;;;;;;30.15;17.77;;;;;;;;;;5115206;28;20174;-79
2021/05/15 01:26:28;;;;;;;33.00;17.88;;;;;;;;;;5112720;28;20206;-78
2021/05/15 01:28:56;;;;;;;31.17;18.48;;;;;;;;;;5114463;28;20194;-79
2021/05/15 01:31:22;;;;;;;27.10;17.73;;;;;;;;;;5110714;28;20547;-79
2021/05/15 01:33:48;;;;;;;29.83;17.13;;;;;;;;;;5119118;27;20448;-76
2021/05/15 01:36:15;;;;;;;29.77;17.48;;;;;;;;;;5118187;27;20178;-77
2021/05/15 01:38:41;;;;;;;30.40;18.33;;;;;;;;;;5132833;27;20194;-78
2021/05/15 01:41:07;;;;;;;28.77;17.63;;;;;;;;;;5114993;27;20174;-74
2021/05/15 01:43:34;;;;;;;29.73;17.35;;;;;;;;;;5119367;27;20756;-78
2021/05/15 01:46:00;;;;;;;28.58;17.52;;;;;;;;;;5121348;27;20377;-77
2021/05/15 01:48:26;;;;;;;29.02;17.85;;;;;;;;;;5114439;27;20528;-77
2021/05/15 01:50:56;;;;;;;29.42;18.17;;;;;;;;;;5136695;27;20181;-78
2021/05/15 01:53:23;;;;;;;29.92;18.20;;;;;;;;;;5116937;27;20718;-77
2021/05/15 01:55:49;;;;;;;30.92;18.15;;;;;;;;;;5124777;27;20174;-77
2021/05/15 01:58:14;;;;;;;27.57;17.60;;;;;;;;;;5116963;27;20212;-77
2021/05/15 02:00:40;;;;;;;28.57;17.53;;;;;;;;;;5117034;27;20428;-78
2021/05/15 02:03:06;;;;;;;26.10;17.07;;;;;;;;;;5123667;27;20416;-76
2021/05/15 02:05:32;;;;;;;29.03;17.40;;;;;;;;;;5131831;27;20951;-75
2021/05/15 02:07:59;;;;;;;30.33;17.53;;;;;;;;;;5115274;27;20414;-76
2021/05/15 02:10:25;;;;;;;27.90;18.48;;;;;;;;;;5125903;27;20745;-77
2021/05/15 02:12:51;;;;;;;25.55;17.02;;;;;;;;;;5119802;27;20306;-76
2021/05/15 02:15:17;;;;;;;25.43;17.27;;;;;;;;;;5120445;27;20219;-75
2021/05/15 02:17:43;;;;;;;25.53;17.30;;;;;;;;;;5118343;27;20424;-75
2021/05/15 02:20:10;;;;;;;29.47;18.00;;;;;;;;;;5115696;28;20912;-75
2021/05/15 02:22:36;;;;;;;27.85;18.60;;;;;;;;;;5114746;28;20849;-77
2021/05/15 02:25:03;;;;;;;29.50;18.70;;;;;;;;;;5117155;27;20201;-79
2021/05/15 02:27:29;;;;;;;28.20;17.88;;;;;;;;;;5118857;27;20206;-78
2021/05/15 02:29:55;;;;;;;27.13;17.67;;;;;;;;;;5110431;27;20225;-77
2021/05/15 02:32:21;;;;;;;27.07;17.90;;;;;;;;;;5111906;28;20524;-77
2021/05/15 02:34:47;;;;;;;25.03;17.10;;;;;;;;;;5120378;27;20421;-77
2021/05/15 02:37:13;;;;;;;27.30;18.67;;;;;;;;;;5122581;27;20408;-76
2021/05/15 02:39:39;;;;;;;25.57;16.50;;;;;;;;;;5127461;27;20427;-79
2021/05/15 02:42:05;;;;;;;25.27;17.00;;;;;;;;;;5129437;27;20423;-75
2021/05/15 02:44:31;;;;;;;28.38;17.55;;;;;;;;;;5115450;27;20431;-77
2021/05/15 02:46:57;;;;;;;25.88;17.63;;;;;;;;;;5107010;27;20195;-77
2021/05/15 02:49:23;;;;;;;30.85;18.05;;;;;;;;;;5113593;28;20213;-78
2021/05/15 02:51:49;;;;;;;25.30;17.55;;;;;;;;;;5113995;28;20205;-78
2021/05/15 02:54:15;;;;;;;27.85;17.30;;;;;;;;;;5112450;28;20175;-76
2021/05/15 02:56:41;;;;;;;25.07;17.50;;;;;;;;;;5104981;28;20599;-78
2021/05/15 02:59:07;;;;;;;27.10;17.90;;;;;;;;;;5113568;28;20535;-75
2021/05/15 03:01:33;;;;;;;26.60;18.05;;;;;;;;;;5121884;27;20603;-78
2021/05/15 03:03:59;;;;;;;25.15;17.63;;;;;;;;;;5134334;27;20508;-76
2021/05/15 03:06:25;;;;;;;24.13;16.23;;;;;;;;;;5123919;27;20201;-76
2021/05/15 03:08:51;;;;;;;24.47;17.10;;;;;;;;;;5129474;27;20493;-77
2021/05/15 03:11:17;;;;;;;24.20;16.43;;;;;;;;;;5111981;27;20418;-79
2021/05/15 03:13:43;;;;;;;23.03;16.67;;;;;;;;;;5120910;27;20420;-79
2021/05/15 03:16:09;;;;;;;23.07;17.00;;;;;;;;;;5121465;27;20920;-78
2021/05/15 03:18:35;;;;;;;23.57;16.70;;;;;;;;;;5129740;27;20901;-78
2021/05/15 03:21:01;;;;;;;25.83;16.97;;;;;;;;;;5120641;28;20412;-77
2021/05/15 03:23:27;;;;;;;28.13;17.00;;;;;;;;;;5117624;28;20765;-78
2021/05/15 03:25:53;;;;;;;24.60;16.83;;;;;;;;;;5113638;28;20202;-78
2021/05/15 03:28:19;;;;;;;25.13;17.33;;;;;;;;;;5113564;28;20248;-78
2021/05/15 03:30:45;;;;;;;23.50;16.93;;;;;;;;;;5113379;28;20201;-77
2021/05/15 03:33:11;;;;;;;27.47;16.53;;;;;;;;;;5105323;27;20425;-75
2021/05/15 03:35:37;;;;;;;23.60;17.25;;;;;;;;;;5103792;28;20430;-78
2021/05/15 03:38:03;;;;;;;24.53;16.47;;;;;;;;;;5114056;28;20178;-75
2021/05/15 03:40:29;;;;;;;23.10;16.30;;;;;;;;;;5135451;28;20476;-78
2021/05/15 03:42:56;;;;;;;24.92;15.88;;;;;;;;;;5127836;28;20424;-78
2021/05/15 03:45:23;;;;;;;23.35;16.92;;;;;;;;;;5095559;28;20202;-75
2021/05/15 03:47:49;;;;;;;21.73;16.35;;;;;;;;;;5103460;28;20254;-75
2021/05/15 03:50:15;;;;;;;25.05;16.38;;;;;;;;;;5102738;28;20195;-77
2021/05/15 03:52:41;;;;;;;24.05;16.50;;;;;;;;;;5117148;27;20198;-76
2021/05/15 03:55:08;;;;;;;29.00;19.97;;;;;;;;;;5112474;28;20176;-76
2021/05/15 03:57:34;;;;;;;30.08;16.80;;;;;;;;;;5114624;27;20412;-76
2021/05/15 04:00:00;;;;;;;23.40;15.27;;;;;;;;;;5120934;27;20199;-75
2021/05/15 04:02:26;;;;;;;26.38;15.80;;;;;;;;;;5111746;28;20187;-77
2021/05/15 04:04:52;;;;;;;27.33;17.45;;;;;;;;;;5124726;27;20191;-77
2021/05/15 04:07:19;;;;;;;28.80;17.75;;;;;;;;;;5117473;28;20167;-79
2021/05/15 04:09:45;;;;;;;23.38;16.55;;;;;;;;;;5124236;27;20205;-76
2021/05/15 04:12:13;;;;;;;31.65;16.33;;;;;;;;;;5133282;27;20250;-79
2021/05/15 04:14:43;;;;;;;24.25;17.05;;;;;;;;;;5117736;27;20198;-77
2021/05/15 04:19:35;;;;;;;26.07;18.93;;;;;;;;;;5112308;27;20199;-76
2021/05/15 04:22:04;;;;;;;30.53;19.10;;;;;;;;;;5117439;27;20509;-79
2021/05/15 04:24:31;;;;;;;28.27;18.10;;;;;;;;;;5117056;28;20537;-78
2021/05/15 04:26:58;;;;;;;30.45;18.23;;;;;;;;;;5128855;27;20209;-77
2021/05/15 04:29:24;;;;;;;30.08;19.25;;;;;;;;;;5116562;27;20248;-79
2021/05/15 04:31:54;;;;;;;24.17;17.38;;;;;;;;;;5119670;27;20252;-76
2021/05/15 04:34:20;;;;;;;22.50;17.88;;;;;;;;;;5134340;27;20167;-80
2021/05/15 04:36:46;;;;;;;25.00;17.60;;;;;;;;;;5115630;28;20175;-77
2021/05/15 04:39:12;;;;;;;23.00;15.40;;;;;;;;;;5116781;28;20195;-77
2021/05/15 04:41:38;;;;;;;26.73;17.42;;;;;;;;;;5118897;27;20426;-76
2021/05/15 04:44:04;;;;;;;21.15;16.30;;;;;;;;;;5126738;27;20179;-78
2021/05/15 04:46:30;;;;;;;22.25;17.13;;;;;;;;;;5152816;27;20202;-77
2021/05/15 04:48:56;;;;;;;26.05;17.45;;;;;;;;;;5129349;27;20205;-77
2021/05/15 04:51:22;;;;;;;24.30;16.23;;;;;;;;;;5116515;27;20175;-76
2021/05/15 04:53:48;;;;;;;27.52;16.88;;;;;;;;;;5120339;27;20492;-78
2021/05/15 04:56:15;;;;;;;21.55;16.20;;;;;;;;;;5121021;27;20197;-78
2021/05/15 04:58:41;;;;;;;24.80;17.02;;;;;;;;;;5115429;27;20199;-76
2021/05/15 05:01:08;;;;;;;24.98;17.60;;;;;;;;;;5112475;27;20186;-79
2021/05/15 05:03:34;;;;;;;26.00;15.82;;;;;;;;;;5104076;27;20175;-77
2021/05/15 05:06:00;;;;;;;22.70;17.27;;;;;;;;;;5123151;27;20612;-76
2021/05/15 05:08:25;;;;;;;25.13;15.93;;;;;;;;;;5115966;28;20445;-77
2021/05/15 05:10:52;;;;;;;23.40;17.50;;;;;;;;;;5123899;27;20177;-76
2021/05/15 05:13:18;;;;;;;22.98;16.10;;;;;;;;;;5127398;27;20424;-77
2021/05/15 05:15:44;;;;;;;25.00;17.35;;;;;;;;;;5115314;28;20239;-77
2021/05/15 05:18:10;;;;;;;23.83;16.30;;;;;;;;;;5111657;28;20223;-76
2021/05/15 05:20:36;;;;;;;20.52;15.90;;;;;;;;;;5114764;28;20839;-77
2021/05/15 05:23:02;;;;;;;21.60;16.90;;;;;;;;;;5110427;27;20225;-78
2021/05/15 05:25:29;;;;;;;24.20;14.93;;;;;;;;;;5127931;27;20202;-76
2021/05/15 05:27:55;;;;;;;23.20;15.60;;;;;;;;;;5115605;28;20645;-74
2021/05/15 05:30:22;;;;;;;22.55;16.30;;;;;;;;;;5115478;28;20228;-77
2021/05/15 05:32:51;;;;;;;24.73;16.13;;;;;;;;;;5130007;27;20214;-77
2021/05/15 05:35:17;;;;;;;24.67;15.35;;;;;;;;;;5117782;27;20249;-79
2021/05/15 05:37:43;;;;;;;18.98;14.43;;;;;;;;;;5136198;27;20499;-77
2021/05/15 05:40:10;;;;;;;21.48;14.52;;;;;;;;;;5126366;27;20199;-76
2021/05/15 05:42:37;;;;;;;22.60;15.27;;;;;;;;;;5130656;27;20511;-78
2021/05/15 05:45:07;;;;;;;24.65;15.07;;;;;;;;;;5135950;27;20177;-74
2021/05/15 05:47:33;;;;;;;19.05;13.80;;;;;;;;;;5135690;27;20215;-76
2021/05/15 05:49:59;;;;;;;24.93;15.93;;;;;;;;;;5127183;27;20586;-77
2021/05/15 05:52:25;;;;;;;19.50;14.32;;;;;;;;;;5123285;27;20409;-76
2021/05/15 05:54:51;;;;;;;22.55;14.65;;;;;;;;;;5127153;27;20543;-75
2021/05/15 05:57:17;;;;;;;20.10;14.80;;;;;;;;;;5131619;27;20170;-78
2021/05/15 05:59:43;;;;;;;20.60;13.18;;;;;;;;;;5134635;27;20424;-77
2021/05/15 06:02:10;;;;;;;21.20;12.93;;;;;;;;;;5136230;27;20488;-79
2021/05/15 06:04:36;;;;;;;21.75;13.38;;;;;;;;;;5121514;27;20433;-76
2021/05/15 06:07:02;;;;;;;20.30;13.95;;;;;;;;;;5130916;27;20681;-77
2021/05/15 06:09:28;;;;;;;22.80;14.77;;;;;;;;;;5124381;27;20198;-77
2021/05/15 06:11:54;;;;;;;19.90;14.03;;;;;;;;;;5135915;27;20927;-80
2021/05/15 06:14:20;;;;;;;20.90;13.93;;;;;;;;;;5120043;27;20925;-76
2021/05/15 06:16:46;;;;;;;21.10;14.00;;;;;;;;;;5120991;27;20443;-77
2021/05/15 06:19:12;;;;;;;20.20;14.60;;;;;;;;;;5111354;28;20428;-78
2021/05/15 06:21:38;;;;;;;20.50;14.40;;;;;;;;;;5111961;27;20404;-78
2021/05/15 06:24:04;;;;;;;18.77;13.87;;;;;;;;;;5124286;27;20382;-81
2021/05/15 06:26:30;;;;;;;23.63;14.13;;;;;;;;;;5111090;28;20474;-79
2021/05/15 06:28:56;;;;;;;23.63;13.60;;;;;;;;;;5110931;28;20202;-78
2021/05/15 06:31:22;;;;;;;19.33;13.77;;;;;;;;;;5111063;28;20424;-79
2021/05/15 06:33:48;;;;;;;19.57;13.73;;;;;;;;;;5111435;28;20424;-79
2021/05/15 06:36:14;;;;;;;16.83;13.27;;;;;;;;;;5113615;27;20424;-81
2021/05/15 06:38:42;;;;;;;18.50;13.13;;;;;;;;;;5114886;27;20536;-79
2021/05/15 06:41:08;;;;;;;19.42;13.65;;;;;;;;;;5124115;27;20760;-77
2021/05/15 06:43:34;;;;;;;20.58;14.85;;;;;;;;;;5119637;27;20190;-78
2021/05/15 06:46:00;;;;;;;20.63;13.50;;;;;;;;;;5104207;27;20238;-79
2021/05/15 06:48:26;;;;;;;17.58;13.23;;;;;;;;;;5116356;27;20962;-78
2021/05/15 06:50:52;;;;;;;19.47;14.63;;;;;;;;;;5129013;27;20174;-79
2021/05/15 06:53:18;;;;;;;19.50;13.68;;;;;;;;;;5134098;27;20477;-78
2021/05/15 06:55:44;;;;;;;17.83;13.70;;;;;;;;;;5119549;28;20182;-78
2021/05/15 06:58:10;;;;;;;21.30;16.08;;;;;;;;;;5112536;28;20178;-78
2021/05/15 07:00:36;;;;;;;18.75;14.02;;;;;;;;;;5120854;27;20181;-78
2021/05/15 07:03:02;;;;;;;18.15;13.43;;;;;;;;;;5110603;28;20171;-78
2021/05/15 07:05:28;;;;;;;20.30;13.93;;;;;;;;;;5122580;27;20224;-79
2021/05/15 07:07:54;;;;;;;18.10;13.10;;;;;;;;;;5130009;27;20448;-78
2021/05/15 07:10:20;;;;;;;18.38;13.82;;;;;;;;;;5124670;27;20515;-79
2021/05/15 07:12:46;;;;;;;17.45;13.90;;;;;;;;;;5113214;27;20694;-76
2021/05/15 07:15:12;;;;;;;19.50;14.93;;;;;;;;;;5116610;27;20190;-78
2021/05/15 07:17:39;;;;;;;18.42;13.85;;;;;;;;;;5130912;27;20538;-78
2021/05/15 07:20:05;;;;;;;19.02;14.57;;;;;;;;;;5103247;27;20765;-79
2021/05/15 07:22:31;;;;;;;16.95;13.38;;;;;;;;;;5130647;27;20669;-78
2021/05/15 07:25:00;;;;;;;19.57;12.53;;;;;;;;;;5106398;27;20184;-76
2021/05/15 07:27:29;;;;;;;17.45;13.90;;;;;;;;;;5127158;27;20412;-78
2021/05/15 07:29:55;;;;;;;17.60;14.23;;;;;;;;;;5109700;28;20194;-81
2021/05/15 07:32:22;;;;;;;18.42;13.82;;;;;;;;;;5120075;27;20227;-78
2021/05/15 07:34:51;;;;;;;16.85;14.95;;;;;;;;;;5112400;27;20217;-78
2021/05/15 07:37:18;;;;;;;17.65;13.88;;;;;;;;;;5130500;27;20843;-77
2021/05/15 07:39:45;;;;;;;17.15;14.13;;;;;;;;;;5118442;27;20912;-78
2021/05/15 07:42:11;;;;;;;16.20;13.30;;;;;;;;;;5120588;28;20177;-79
2021/05/15 07:44:37;;;;;;;13.70;11.35;;;;;;;;;;5117661;28;20554;-79
2021/05/15 07:47:06;;;;;;;16.80;13.52;;;;;;;;;;5130363;28;20204;-80
2021/05/15 07:49:32;;;;;;;17.30;13.07;;;;;;;;;;5115459;28;20221;-80
2021/05/15 07:51:58;;;;;;;15.00;13.35;;;;;;;;;;5123633;28;20669;-77
2021/05/15 07:54:24;;;;;;;17.95;13.93;;;;;;;;;;5109388;28;20183;-77
2021/05/15 07:56:50;;;;;;;17.52;14.57;;;;;;;;;;5109983;28;20188;-77
2021/05/15 07:59:16;;;;;;;21.95;16.48;;;;;;;;;;5116899;28;20211;-77
2021/05/15 08:01:43;;;;;;;19.30;14.90;;;;;;;;;;5120889;28;20178;-77
2021/05/15 08:04:09;;;;;;;20.63;14.05;;;;;;;;;;5111985;28;20547;-79
2021/05/15 08:06:35;;;;;;;17.80;13.80;;;;;;;;;;5120631;28;20262;-75
2021/05/15 08:09:01;;;;;;;16.60;13.50;;;;;;;;;;5123890;28;20193;-77
2021/05/15 08:11:27;;;;;;;17.73;14.13;;;;;;;;;;5119906;28;20747;-78
2021/05/15 08:13:53;;;;;;;19.83;15.82;;;;;;;;;;5119506;28;20827;-75
2021/05/15 08:16:19;;;;;;;18.47;15.43;;;;;;;;;;5119821;28;20202;-78
2021/05/15 08:18:45;;;;;;;19.37;16.50;;;;;;;;;;5129677;28;20431;-75
2021/05/15 08:21:12;;;;;;;18.40;14.95;;;;;;;;;;5112950;28;20463;-78
2021/05/15 08:23:41;;;;;;;19.98;14.20;;;;;;;;;;5118924;28;20220;-78
2021/05/15 08:26:09;;;;;;;22.08;14.80;;;;;;;;;;5129718;28;20202;-76
2021/05/15 08:28:38;;;;;;;19.20;15.52;;;;;;;;;;5118946;28;20679;-79
2021/05/15 08:31:04;;;;;;;17.17;14.00;;;;;;;;;;5127177;28;20261;-77
2021/05/15 08:33:30;;;;;;;19.20;15.80;;;;;;;;;;5118873;28;20257;-75
2021/05/15 08:35:56;;;;;;;18.87;15.00;;;;;;;;;;5108711;28;20431;-78
2021/05/15 08:38:22;;;;;;;21.37;14.20;;;;;;;;;;5109459;28;20424;-75
2021/05/15 08:40:48;;;;;;;16.30;13.90;;;;;;;;;;5123077;27;20424;-76
2021/05/15 08:43:15;;;;;;;18.50;15.40;;;;;;;;;;5109667;27;20440;-74
2021/05/15 08:45:41;;;;;;;21.02;15.60;;;;;;;;;;5124982;27;20824;-76
2021/05/15 08:48:09;;;;;;;19.70;17.60;;;;;;;;;;5106418;27;20536;-77
2021/05/15 08:50:35;;;;;;;20.23;17.17;;;;;;;;;;5113659;28;20175;-77
2021/05/15 08:53:01;;;;;;;19.70;17.60;;;;;;;;;;5110553;27;20229;-76
2021/05/15 08:55:29;;;;;;;24.20;15.90;;;;;;;;;;5133405;27;20184;-76
2021/05/15 08:57:55;;;;;;;26.10;21.58;;;;;;;;;;5119293;27;20228;-77
2021/05/15 09:00:24;;;;;;;28.35;23.33;;;;;;;;;;5124148;27;20655;-76
2021/05/15 09:02:52;;;;;;;23.80;20.40;;;;;;;;;;5117663;27;20213;-77
2021/05/15 09:05:18;;;;;;;20.73;18.52;;;;;;;;;;5123113;27;20563;-78
2021/05/15 09:07:47;;;;;;;34.97;28.63;;;;;;;;;;5130079;27;20178;-75
2021/05/15 09:10:13;;;;;;;28.25;17.98;;;;;;;;;;5124088;27;20198;-77
2021/05/15 09:12:39;;;;;;;25.60;19.40;;;;;;;;;;5119775;27;20181;-78
2021/05/15 09:15:06;;;;;;;24.27;17.40;;;;;;;;;;5122161;27;20412;-77
2021/05/15 09:17:45;;;;;;;24.65;19.40;;;;;;;;;;5112300;28;20762;-76
2021/05/15 09:20:12;;;;;;;22.48;20.08;;;;;;;;;;5117407;27;20190;-75
2021/05/15 09:22:38;;;;;;;23.45;20.30;;;;;;;;;;5123965;27;20253;-76
2021/05/15 09:25:06;;;;;;;23.60;21.23;;;;;;;;;;5131482;27;20185;-77
2021/05/15 09:27:33;;;;;;;24.75;22.15;;;;;;;;;;5114782;27;20670;-79
2021/05/15 09:29:59;;;;;;;24.20;21.80;;;;;;;;;;5121010;27;20225;-76
2021/05/15 09:32:33;;;;;;;24.67;22.08;;;;;;;;;;5130838;27;20203;-79
2021/05/15 09:34:59;;;;;;;24.60;22.08;;;;;;;;;;5116967;27;20315;-78
2021/05/15 09:37:32;;;;;;;25.47;22.50;;;;;;;;;;5109382;28;20703;-78
2021/05/15 09:40:09;;;;;;;22.20;19.87;;;;;;;;;;5119086;27;20478;-76
2021/05/15 09:42:44;;;;;;;21.53;17.73;;;;;;;;;;5113686;27;20416;-76
2021/05/15 09:45:21;;;;;;;20.53;17.27;;;;;;;;;;5109861;28;20958;-78
2021/05/15 09:47:56;;;;;;;20.90;17.40;;;;;;;;;;5108640;28;20412;-77
2021/05/15 09:50:23;;;;;;;23.20;18.43;;;;;;;;;;5110808;28;20483;-80
2021/05/15 09:52:49;;;;;;;20.57;16.50;;;;;;;;;;5111571;28;20411;-79
2021/05/15 09:55:16;;;;;;;19.03;17.00;;;;;;;;;;5127417;27;20654;-79
2021/05/15 09:57:42;;;;;;;20.77;17.37;;;;;;;;;;5132848;27;20478;-77
2021/05/15 10:00:14;;;;;;;18.80;16.30;;;;;;;;;;5132599;27;20867;-79
2021/05/15 10:02:40;;;;;;;19.70;17.57;;;;;;;;;;5133121;27;20471;-78
2021/05/15 10:05:10;;;;;;;20.10;17.90;;;;;;;;;;5115843;27;20517;-77
2021/05/15 10:07:37;;;;;;;22.80;20.00;;;;;;;;;;5122263;27;20411;-79
2021/05/15 10:10:05;;;;;;;19.67;16.73;;;;;;;;;;5120584;27;21054;-81
2021/05/15 10:12:31;;;;;;;19.07;17.07;;;;;;;;;;5121876;27;20412;-78
2021/05/15 10:14:57;;;;;;;18.97;17.10;;;;;;;;;;5111380;28;20416;-79
2021/05/15 10:17:23;;;;;;;18.90;16.90;;;;;;;;;;5110480;28;20428;-77
2021/05/15 10:19:49;;;;;;;17.30;15.60;;;;;;;;;;5099522;28;20450;-79
2021/05/15 10:22:15;;;;;;;17.90;16.10;;;;;;;;;;5122999;27;20415;-79
2021/05/15 10:24:45;;;;;;;16.67;14.97;;;;;;;;;;5110287;27;20435;-78
2021/05/15 10:27:12;;;;;;;15.93;14.40;;;;;;;;;;5117950;27;20825;-79
2021/05/15 10:29:38;;;;;;;15.93;14.33;;;;;;;;;;5109549;28;20429;-78
2021/05/15 10:32:04;;;;;;;18.23;16.43;;;;;;;;;;5110656;28;20439;-79
2021/05/15 10:34:34;;;;;;;16.13;14.40;;;;;;;;;;5116406;27;20439;-79
2021/05/15 10:37:01;;;;;;;16.30;14.23;;;;;;;;;;5120829;27;20424;-80
2021/05/15 10:39:28;;;;;;;16.80;15.00;;;;;;;;;;5125985;27;20532;-80
2021/05/15 10:41:55;;;;;;;19.23;16.83;;;;;;;;;;5107507;27;20433;-80
2021/05/15 10:44:21;;;;;;;16.77;15.13;;;;;;;;;;5096794;28;20415;-79
2021/05/15 10:46:47;;;;;;;17.60;15.73;;;;;;;;;;5103855;27;20459;-79
2021/05/15 10:49:18;;;;;;;16.20;14.57;;;;;;;;;;5130546;27;20427;-79
2021/05/15 10:51:51;;;;;;;21.90;16.90;;;;;;;;;;5123315;27;20428;-78
2021/05/15 10:54:29;;;;;;;17.53;15.47;;;;;;;;;;5119027;27;20423;-78
2021/05/15 10:57:00;;;;;;;19.80;15.63;;;;;;;;;;5124215;27;20537;-78
2021/05/15 10:59:26;;;;;;;18.33;16.33;;;;;;;;;;5129888;27;20569;-78
2021/05/15 11:01:53;;;;;;;15.70;14.07;;;;;;;;;;5114254;27;20426;-78
2021/05/15 11:04:21;;;;;;;19.73;16.23;;;;;;;;;;5130487;27;20907;-79
2021/05/15 11:07:06;;;;;;;19.90;15.63;;;;;;;;;;5128530;27;20451;-78
2021/05/15 11:09:34;;;;;;;18.73;14.50;;;;;;;;;;5116054;27;20475;-79
2021/05/15 11:12:04;;;;;;;19.23;14.80;;;;;;;;;;5105100;27;20418;-78
2021/05/15 11:14:37;;;;;;;23.30;19.13;;;;;;;;;;5116447;27;20461;-79
2021/05/15 11:17:08;;;;;;;18.07;15.27;;;;;;;;;;5109696;28;20479;-78
2021/05/15 11:19:34;;;;;;;17.50;14.20;;;;;;;;;;5109725;28;20444;-78
2021/05/15 11:22:00;;;;;;;16.93;14.30;;;;;;;;;;5108121;27;20435;-78
2021/05/15 11:24:35;;;;;;;14.63;13.17;;;;;;;;;;5130240;27;20510;-79
2021/05/15 11:27:12;;;;;;;14.63;13.33;;;;;;;;;;5106842;27;20490;-79
2021/05/15 11:29:38;;;;;;;14.67;13.37;;;;;;;;;;5121328;27;20442;-80
2021/05/15 11:32:12;;;;;;;15.30;13.90;;;;;;;;;;5111365;27;20423;-79
2021/05/15 11:34:38;;;;;;;15.63;14.23;;;;;;;;;;5129981;27;20437;-79
2021/05/15 11:37:06;;;;;;;16.60;14.90;;;;;;;;;;5106072;28;20956;-78
2021/05/15 11:39:32;;;;;;;15.37;13.77;;;;;;;;;;5126834;27;20849;-78
2021/05/15 11:42:03;;;;;;;14.10;12.73;;;;;;;;;;5116477;28;20430;-79
2021/05/15 11:44:36;;;;;;;14.30;12.90;;;;;;;;;;5129682;28;20422;-78
2021/05/15 11:47:04;;;;;;;16.90;15.17;;;;;;;;;;5112347;28;20960;-78
2021/05/15 11:49:30;;;;;;;16.60;15.20;;;;;;;;;;5128696;28;20476;-77
2021/05/15 11:52:00;;;;;;;15.43;13.97;;;;;;;;;;5123802;28;20788;-79
2021/05/15 11:54:26;;;;;;;14.70;13.30;;;;;;;;;;5129791;27;20443;-78
2021/05/15 11:56:56;;;;;;;13.63;12.43;;;;;;;;;;5115009;28;20437;-80
2021/05/15 11:59:23;;;;;;;13.60;12.20;;;;;;;;;;5116240;28;20851;-78
2021/05/15 12:01:49;;;;;;;14.77;13.30;;;;;;;;;;5115457;28;20781;-77
2021/05/15 12:04:17;;;;;;;16.03;14.43;;;;;;;;;;5096429;28;20474;-78
2021/05/15 12:06:44;;;;;;;14.93;13.53;;;;;;;;;;5110325;28;20884;-79
2021/05/15 12:09:21;;;;;;;15.00;13.50;;;;;;;;;;5108863;28;20440;-81
2021/05/15 12:11:47;;;;;;;17.57;15.83;;;;;;;;;;5111472;28;20700;-78
2021/05/15 12:14:13;;;;;;;15.00;13.50;;;;;;;;;;5117957;27;20493;-80
2021/05/15 12:16:40;;;;;;;14.43;13.13;;;;;;;;;;5122675;27;20415;-80
2021/05/15 12:19:07;;;;;;;14.70;13.30;;;;;;;;;;5109246;28;20533;-79
2021/05/15 12:21:33;;;;;;;15.47;13.87;;;;;;;;;;5118506;27;20428;-80
2021/05/15 12:24:03;;;;;;;15.40;13.80;;;;;;;;;;5119218;27;20438;-79
2021/05/15 12:26:29;;;;;;;16.47;14.60;;;;;;;;;;5126971;27;20467;-80
2021/05/15 12:28:55;;;;;;;15.27;13.40;;;;;;;;;;5105514;28;20473;-80
2021/05/15 12:31:23;;;;;;;14.97;13.43;;;;;;;;;;5127011;27;20421;-80
2021/05/15 12:33:49;;;;;;;15.07;12.70;;;;;;;;;;5111228;28;20421;-78
2021/05/15 12:36:15;;;;;;;16.73;13.53;;;;;;;;;;5135307;27;20761;-79
2021/05/15 12:38:48;;;;;;;17.40;13.77;;;;;;;;;;5129001;27;20798;-79
2021/05/15 12:41:16;;;;;;;14.33;12.93;;;;;;;;;;5113787;28;20438;-79
2021/05/15 12:43:43;;;;;;;16.83;13.87;;;;;;;;;;5125523;27;20433;-78
2021/05/15 12:46:11;;;;;;;17.30;13.00;;;;;;;;;;5136464;27;20853;-78
2021/05/15 12:48:39;;;;;;;17.50;13.53;;;;;;;;;;5130424;27;20444;-79
2021/05/15 12:51:06;;;;;;;18.30;15.00;;;;;;;;;;5113595;28;20497;-78
2021/05/15 12:53:32;;;;;;;16.83;14.43;;;;;;;;;;5111826;27;20416;-81
2021/05/15 12:55:58;;;;;;;16.93;14.40;;;;;;;;;;5112449;27;20425;-79
2021/05/15 12:58:25;;;;;;;20.40;15.00;;;;;;;;;;5115646;27;20490;-79
2021/05/15 13:01:05;;;;;;;20.60;15.20;;;;;;;;;;5112238;27;20408;-81
2021/05/15 13:03:31;;;;;;;17.77;14.90;;;;;;;;;;5134009;27;20414;-79
2021/05/15 13:05:57;;;;;;;18.70;15.00;;;;;;;;;;5117180;28;20472;-79
2021/05/15 13:08:30;;;;;;;19.57;15.40;;;;;;;;;;5127415;27;20496;-78
2021/05/15 13:11:08;;;;;;;18.70;14.93;;;;;;;;;;5120486;27;20499;-78
2021/05/15 13:13:34;;;;;;;18.00;13.60;;;;;;;;;;5126585;27;20915;-79
2021/05/15 13:16:00;;;;;;;22.37;15.80;;;;;;;;;;5108361;27;20781;-78
2021/05/15 13:18:26;;;;;;;23.03;16.60;;;;;;;;;;5108596;27;20440;-78
2021/05/15 13:20:52;;;;;;;21.40;16.77;;;;;;;;;;5107804;27;20427;-77
2021/05/15 13:23:18;;;;;;;23.07;16.07;;;;;;;;;;5112884;28;20424;-79
2021/05/15 13:25:44;;;;;;;23.10;16.80;;;;;;;;;;5126278;27;20454;-79
2021/05/15 13:28:10;;;;;;;21.67;16.40;;;;;;;;;;5114333;27;20408;-80
2021/05/15 13:30:36;;;;;;;19.80;15.40;;;;;;;;;;5112495;27;20412;-78
2021/05/15 13:33:02;;;;;;;18.10;14.93;;;;;;;;;;5119829;27;20491;-80
2021/05/15 13:35:27;;;;;;;21.10;15.07;;;;;;;;;;5112548;27;20503;-80
2021/05/15 13:37:53;;;;;;;18.83;14.30;;;;;;;;;;5121376;27;20504;-80
2021/05/15 13:40:20;;;;;;;17.70;14.40;;;;;;;;;;5126102;27;20442;-80
2021/05/15 13:42:46;;;;;;;18.33;14.67;;;;;;;;;;5127153;27;20421;-79
2021/05/15 13:45:12;;;;;;;18.13;14.33;;;;;;;;;;5120243;27;20742;-79
2021/05/15 13:47:38;;;;;;;14.73;13.00;;;;;;;;;;5131648;27;20507;-80
2021/05/15 13:50:05;;;;;;;14.90;11.60;;;;;;;;;;5117993;27;20434;-79
2021/05/15 13:52:31;;;;;;;14.13;11.57;;;;;;;;;;5112075;27;20498;-79
2021/05/15 13:54:57;;;;;;;12.43;11.13;;;;;;;;;;5124138;27;20448;-79
2021/05/15 13:57:23;;;;;;;10.97;9.60;;;;;;;;;;5110724;28;20488;-81
2021/05/15 13:59:49;;;;;;;10.73;9.00;;;;;;;;;;5125692;27;20888;-80
2021/05/15 14:02:16;;;;;;;9.90;8.50;;;;;;;;;;5106899;27;20414;-81
2021/05/15 14:04:42;;;;;;;9.60;8.47;;;;;;;;;;5132223;27;20921;-79
2021/05/15 14:07:08;;;;;;;12.73;7.40;;;;;;;;;;5100294;28;20812;-80
2021/05/15 14:09:34;;;;;;;9.37;6.77;;;;;;;;;;5111165;28;20448;-80
2021/05/15 14:12:00;;;;;;;8.00;7.20;;;;;;;;;;5111650;28;20409;-80
2021/05/15 14:14:26;;;;;;;12.33;8.40;;;;;;;;;;5102860;27;20468;-78
2021/05/15 14:16:52;;;;;;;7.60;6.90;;;;;;;;;;5128349;27;20498;-78
2021/05/15 14:19:18;;;;;;;15.35;13.85;;;;;;;;;;5119871;27;20805;-79